sensor_id;sensor_type;location;lat;lon;timestamp;P1;durP1;ratioP1;P2;durP2;ratioP2
16320;SDS011;8269;50.990;4.494;2023-01-10T00:02:15;14.10;;;3.97;;
16320;SDS011;8269;50.990;4.494;2023-01-10T00:04:42;13.27;;;3.30;;
16320;SDS011;8269;50.990;4.494;2023-01-10T00:07:08;9.53;;;2.97;;
16320;SDS011;8269;50.990;4.494;2023-01-10T00:09:34;14.53;;;3.50;;
16320;SDS011;8269;50.990;4.494;2023-01-10T00:12:00;18.30;;;3.73;;
16320;SDS011;8269;50.990;4.494;2023-01-10T00:14:44;10.07;;;3.00;;
16320;SDS011;8269;50.990;4.494;2023-01-10T00:17:11;12.83;;;3.17;;
16320;SDS011;8269;50.990;4.494;2023-01-10T00:19:37;11.17;;;3.53;;
16320;SDS011;8269;50.990;4.494;2023-01-10T00:22:03;15.20;;;3.30;;
16320;SDS011;8269;50.990;4.494;2023-01-10T00:24:30;13.57;;;3.53;;
16320;SDS011;8269;50.990;4.494;2023-01-10T00:26:56;12.27;;;3.33;;
16320;SDS011;8269;50.990;4.494;2023-01-10T00:29:27;15.10;;;3.20;;
16320;SDS011;8269;50.990;4.494;2023-01-10T00:31:53;11.97;;;2.93;;
16320;SDS011;8269;50.990;4.494;2023-01-10T00:34:20;13.30;;;3.60;;
16320;SDS011;8269;50.990;4.494;2023-01-10T00:36:46;11.83;;;3.03;;
16320;SDS011;8269;50.990;4.494;2023-01-10T00:39:12;14.47;;;3.63;;
16320;SDS011;8269;50.990;4.494;2023-01-10T00:41:39;14.33;;;3.20;;
16320;SDS011;8269;50.990;4.494;2023-01-10T00:44:24;15.63;;;4.53;;
16320;SDS011;8269;50.990;4.494;2023-01-10T00:46:50;13.17;;;3.80;;
16320;SDS011;8269;50.990;4.494;2023-01-10T00:49:17;13.20;;;3.57;;
16320;SDS011;8269;50.990;4.494;2023-01-10T00:51:43;20.37;;;3.77;;
16320;SDS011;8269;50.990;4.494;2023-01-10T00:54:10;15.47;;;3.57;;
16320;SDS011;8269;50.990;4.494;2023-01-10T00:56:36;14.17;;;3.17;;
16320;SDS011;8269;50.990;4.494;2023-01-10T00:59:02;17.70;;;3.20;;
16320;SDS011;8269;50.990;4.494;2023-01-10T01:01:29;16.13;;;3.87;;
16320;SDS011;8269;50.990;4.494;2023-01-10T01:03:55;13.77;;;3.70;;
16320;SDS011;8269;50.990;4.494;2023-01-10T01:06:23;14.20;;;3.80;;
16320;SDS011;8269;50.990;4.494;2023-01-10T01:08:49;13.67;;;3.53;;
16320;SDS011;8269;50.990;4.494;2023-01-10T01:11:15;14.27;;;3.47;;
16320;SDS011;8269;50.990;4.494;2023-01-10T01:13:41;14.03;;;3.57;;
16320;SDS011;8269;50.990;4.494;2023-01-10T01:16:07;18.33;;;3.77;;
16320;SDS011;8269;50.990;4.494;2023-01-10T01:18:33;16.03;;;3.70;;
16320;SDS011;8269;50.990;4.494;2023-01-10T01:20:59;16.60;;;3.43;;
16320;SDS011;8269;50.990;4.494;2023-01-10T01:23:27;16.83;;;3.73;;
16320;SDS011;8269;50.990;4.494;2023-01-10T01:25:54;14.13;;;4.43;;
16320;SDS011;8269;50.990;4.494;2023-01-10T01:28:20;13.03;;;3.13;;
16320;SDS011;8269;50.990;4.494;2023-01-10T01:30:47;14.50;;;3.47;;
16320;SDS011;8269;50.990;4.494;2023-01-10T01:33:13;17.30;;;3.90;;
16320;SDS011;8269;50.990;4.494;2023-01-10T01:35:44;16.20;;;4.07;;
16320;SDS011;8269;50.990;4.494;2023-01-10T01:38:10;19.03;;;4.13;;
16320;SDS011;8269;50.990;4.494;2023-01-10T01:40:36;15.97;;;4.07;;
16320;SDS011;8269;50.990;4.494;2023-01-10T01:43:03;17.93;;;3.47;;
16320;SDS011;8269;50.990;4.494;2023-01-10T01:45:31;13.47;;;3.73;;
16320;SDS011;8269;50.990;4.494;2023-01-10T01:48:00;17.60;;;4.03;;
16320;SDS011;8269;50.990;4.494;2023-01-10T01:50:31;13.83;;;3.10;;
16320;SDS011;8269;50.990;4.494;2023-01-10T01:52:59;20.37;;;3.70;;
16320;SDS011;8269;50.990;4.494;2023-01-10T01:55:27;20.43;;;3.80;;
16320;SDS011;8269;50.990;4.494;2023-01-10T01:57:55;22.70;;;4.70;;
16320;SDS011;8269;50.990;4.494;2023-01-10T02:00:24;16.50;;;3.87;;
16320;SDS011;8269;50.990;4.494;2023-01-10T02:02:51;23.83;;;4.53;;
16320;SDS011;8269;50.990;4.494;2023-01-10T02:05:18;18.70;;;3.67;;
16320;SDS011;8269;50.990;4.494;2023-01-10T02:07:47;16.07;;;4.17;;
16320;SDS011;8269;50.990;4.494;2023-01-10T02:10:24;17.30;;;3.80;;
16320;SDS011;8269;50.990;4.494;2023-01-10T02:12:52;18.47;;;4.53;;
16320;SDS011;8269;50.990;4.494;2023-01-10T02:15:19;21.03;;;4.50;;
16320;SDS011;8269;50.990;4.494;2023-01-10T02:17:49;18.97;;;3.70;;
16320;SDS011;8269;50.990;4.494;2023-01-10T02:20:16;12.77;;;3.60;;
16320;SDS011;8269;50.990;4.494;2023-01-10T02:32:51;21.17;;;3.30;;
16320;SDS011;8269;50.990;4.494;2023-01-10T02:42:46;20.40;;;4.20;;
16320;SDS011;8269;50.990;4.494;2023-01-10T02:45:20;18.17;;;3.83;;
16320;SDS011;8269;50.990;4.494;2023-01-10T02:47:49;17.57;;;3.90;;
16320;SDS011;8269;50.990;4.494;2023-01-10T02:52:51;18.63;;;4.47;;
16320;SDS011;8269;50.990;4.494;2023-01-10T02:55:17;17.03;;;3.90;;
16320;SDS011;8269;50.990;4.494;2023-01-10T02:57:48;19.70;;;4.63;;
16320;SDS011;8269;50.990;4.494;2023-01-10T03:05:36;16.17;;;3.60;;
16320;SDS011;8269;50.990;4.494;2023-01-10T03:08:10;20.23;;;4.27;;
16320;SDS011;8269;50.990;4.494;2023-01-10T03:10:43;19.57;;;4.70;;
16320;SDS011;8269;50.990;4.494;2023-01-10T03:13:12;27.00;;;4.80;;
16320;SDS011;8269;50.990;4.494;2023-01-10T03:15:39;16.93;;;4.57;;
16320;SDS011;8269;50.990;4.494;2023-01-10T03:18:08;20.00;;;4.20;;
16320;SDS011;8269;50.990;4.494;2023-01-10T03:20:35;15.13;;;4.37;;
16320;SDS011;8269;50.990;4.494;2023-01-10T03:23:03;23.93;;;4.63;;
16320;SDS011;8269;50.990;4.494;2023-01-10T03:25:30;19.13;;;4.60;;
16320;SDS011;8269;50.990;4.494;2023-01-10T03:30:29;24.33;;;4.80;;
16320;SDS011;8269;50.990;4.494;2023-01-10T03:32:56;24.77;;;5.23;;
16320;SDS011;8269;50.990;4.494;2023-01-10T03:35:27;16.90;;;4.73;;
16320;SDS011;8269;50.990;4.494;2023-01-10T03:37:57;20.60;;;4.20;;
16320;SDS011;8269;50.990;4.494;2023-01-10T03:40:32;18.60;;;4.53;;
16320;SDS011;8269;50.990;4.494;2023-01-10T03:45:51;25.23;;;5.67;;
16320;SDS011;8269;50.990;4.494;2023-01-10T03:48:18;20.43;;;4.60;;
16320;SDS011;8269;50.990;4.494;2023-01-10T03:50:45;22.23;;;4.50;;
16320;SDS011;8269;50.990;4.494;2023-01-10T03:53:12;28.03;;;5.70;;
16320;SDS011;8269;50.990;4.494;2023-01-10T03:55:38;20.37;;;4.67;;
16320;SDS011;8269;50.990;4.494;2023-01-10T03:58:06;24.77;;;4.63;;
16320;SDS011;8269;50.990;4.494;2023-01-10T04:00:32;18.83;;;4.13;;
16320;SDS011;8269;50.990;4.494;2023-01-10T04:02:58;19.67;;;4.57;;
16320;SDS011;8269;50.990;4.494;2023-01-10T04:05:24;18.83;;;3.90;;
16320;SDS011;8269;50.990;4.494;2023-01-10T04:07:50;25.67;;;4.97;;
16320;SDS011;8269;50.990;4.494;2023-01-10T04:10:17;32.10;;;4.93;;
16320;SDS011;8269;50.990;4.494;2023-01-10T04:12:43;18.37;;;3.83;;
16320;SDS011;8269;50.990;4.494;2023-01-10T04:15:09;22.10;;;5.00;;
16320;SDS011;8269;50.990;4.494;2023-01-10T04:17:35;29.83;;;4.93;;
16320;SDS011;8269;50.990;4.494;2023-01-10T04:20:01;24.20;;;5.57;;
16320;SDS011;8269;50.990;4.494;2023-01-10T04:22:27;21.47;;;4.57;;
16320;SDS011;8269;50.990;4.494;2023-01-10T04:24:53;23.10;;;4.87;;
16320;SDS011;8269;50.990;4.494;2023-01-10T04:27:19;22.33;;;5.07;;
16320;SDS011;8269;50.990;4.494;2023-01-10T04:29:46;23.67;;;5.40;;
16320;SDS011;8269;50.990;4.494;2023-01-10T04:32:12;27.50;;;5.37;;
16320;SDS011;8269;50.990;4.494;2023-01-10T04:34:38;28.37;;;5.97;;
16320;SDS011;8269;50.990;4.494;2023-01-10T04:37:04;21.47;;;4.77;;
16320;SDS011;8269;50.990;4.494;2023-01-10T04:39:30;23.33;;;5.37;;
16320;SDS011;8269;50.990;4.494;2023-01-10T04:41:56;24.50;;;5.70;;
16320;SDS011;8269;50.990;4.494;2023-01-10T04:44:22;23.37;;;4.67;;
16320;SDS011;8269;50.990;4.494;2023-01-10T04:46:48;27.13;;;5.10;;
16320;SDS011;8269;50.990;4.494;2023-01-10T04:49:14;29.57;;;5.23;;
16320;SDS011;8269;50.990;4.494;2023-01-10T04:51:40;24.57;;;4.80;;
16320;SDS011;8269;50.990;4.494;2023-01-10T04:54:06;24.17;;;5.60;;
16320;SDS011;8269;50.990;4.494;2023-01-10T04:56:32;23.97;;;5.00;;
16320;SDS011;8269;50.990;4.494;2023-01-10T04:58:59;26.83;;;5.67;;
16320;SDS011;8269;50.990;4.494;2023-01-10T05:01:25;25.47;;;5.50;;
16320;SDS011;8269;50.990;4.494;2023-01-10T05:03:51;25.57;;;5.80;;
16320;SDS011;8269;50.990;4.494;2023-01-10T05:06:18;27.57;;;5.30;;
16320;SDS011;8269;50.990;4.494;2023-01-10T05:08:44;25.67;;;5.30;;
16320;SDS011;8269;50.990;4.494;2023-01-10T05:11:10;22.40;;;4.67;;
16320;SDS011;8269;50.990;4.494;2023-01-10T05:13:37;22.10;;;6.10;;
16320;SDS011;8269;50.990;4.494;2023-01-10T05:16:03;23.93;;;4.97;;
16320;SDS011;8269;50.990;4.494;2023-01-10T05:18:29;22.63;;;4.93;;
16320;SDS011;8269;50.990;4.494;2023-01-10T05:20:59;23.33;;;5.00;;
16320;SDS011;8269;50.990;4.494;2023-01-10T05:23:25;23.47;;;5.80;;
16320;SDS011;8269;50.990;4.494;2023-01-10T05:25:53;24.93;;;5.40;;
16320;SDS011;8269;50.990;4.494;2023-01-10T05:28:19;21.47;;;5.20;;
16320;SDS011;8269;50.990;4.494;2023-01-10T05:30:45;20.70;;;4.67;;
16320;SDS011;8269;50.990;4.494;2023-01-10T05:33:11;30.03;;;5.63;;
16320;SDS011;8269;50.990;4.494;2023-01-10T05:35:37;24.80;;;5.87;;
16320;SDS011;8269;50.990;4.494;2023-01-10T05:38:03;24.53;;;4.70;;
16320;SDS011;8269;50.990;4.494;2023-01-10T05:40:29;33.50;;;5.67;;
16320;SDS011;8269;50.990;4.494;2023-01-10T05:42:55;28.83;;;5.60;;
16320;SDS011;8269;50.990;4.494;2023-01-10T05:45:21;22.50;;;4.33;;
16320;SDS011;8269;50.990;4.494;2023-01-10T05:47:47;22.63;;;4.80;;
16320;SDS011;8269;50.990;4.494;2023-01-10T05:50:13;27.80;;;5.57;;
16320;SDS011;8269;50.990;4.494;2023-01-10T05:52:39;26.90;;;4.87;;
16320;SDS011;8269;50.990;4.494;2023-01-10T05:55:06;24.60;;;4.73;;
16320;SDS011;8269;50.990;4.494;2023-01-10T05:57:32;24.00;;;4.77;;
16320;SDS011;8269;50.990;4.494;2023-01-10T05:59:58;24.87;;;4.83;;
16320;SDS011;8269;50.990;4.494;2023-01-10T06:02:24;20.07;;;4.77;;
16320;SDS011;8269;50.990;4.494;2023-01-10T06:04:51;24.83;;;5.20;;
16320;SDS011;8269;50.990;4.494;2023-01-10T06:07:19;24.63;;;4.47;;
16320;SDS011;8269;50.990;4.494;2023-01-10T06:09:45;24.97;;;5.73;;
16320;SDS011;8269;50.990;4.494;2023-01-10T06:12:11;27.07;;;4.87;;
16320;SDS011;8269;50.990;4.494;2023-01-10T06:14:37;25.50;;;5.53;;
16320;SDS011;8269;50.990;4.494;2023-01-10T06:17:03;30.40;;;5.57;;
16320;SDS011;8269;50.990;4.494;2023-01-10T06:19:34;24.23;;;5.10;;
16320;SDS011;8269;50.990;4.494;2023-01-10T06:22:02;27.30;;;5.43;;
16320;SDS011;8269;50.990;4.494;2023-01-10T06:24:28;29.57;;;5.37;;
16320;SDS011;8269;50.990;4.494;2023-01-10T06:26:54;32.83;;;5.10;;
16320;SDS011;8269;50.990;4.494;2023-01-10T06:29:20;26.87;;;5.23;;
16320;SDS011;8269;50.990;4.494;2023-01-10T06:31:46;26.90;;;4.60;;
16320;SDS011;8269;50.990;4.494;2023-01-10T06:34:12;25.67;;;5.13;;
16320;SDS011;8269;50.990;4.494;2023-01-10T06:36:38;24.40;;;5.17;;
16320;SDS011;8269;50.990;4.494;2023-01-10T06:39:04;23.47;;;4.97;;
16320;SDS011;8269;50.990;4.494;2023-01-10T06:41:30;24.30;;;5.60;;
16320;SDS011;8269;50.990;4.494;2023-01-10T06:43:56;26.83;;;5.27;;
16320;SDS011;8269;50.990;4.494;2023-01-10T06:46:22;23.73;;;4.97;;
16320;SDS011;8269;50.990;4.494;2023-01-10T06:48:56;23.73;;;5.70;;
16320;SDS011;8269;50.990;4.494;2023-01-10T06:51:26;19.30;;;4.70;;
16320;SDS011;8269;50.990;4.494;2023-01-10T06:53:55;25.77;;;5.03;;
16320;SDS011;8269;50.990;4.494;2023-01-10T06:56:21;21.67;;;4.90;;
16320;SDS011;8269;50.990;4.494;2023-01-10T06:58:50;28.40;;;5.53;;
16320;SDS011;8269;50.990;4.494;2023-01-10T07:01:18;23.30;;;4.77;;
16320;SDS011;8269;50.990;4.494;2023-01-10T07:03:44;23.70;;;4.43;;
16320;SDS011;8269;50.990;4.494;2023-01-10T07:06:11;26.20;;;5.00;;
16320;SDS011;8269;50.990;4.494;2023-01-10T07:08:38;30.90;;;5.53;;
16320;SDS011;8269;50.990;4.494;2023-01-10T07:11:04;28.50;;;4.73;;
16320;SDS011;8269;50.990;4.494;2023-01-10T07:13:31;22.13;;;4.50;;
16320;SDS011;8269;50.990;4.494;2023-01-10T07:16:01;24.37;;;4.70;;
16320;SDS011;8269;50.990;4.494;2023-01-10T07:18:28;18.53;;;3.80;;
16320;SDS011;8269;50.990;4.494;2023-01-10T07:20:54;19.37;;;4.13;;
16320;SDS011;8269;50.990;4.494;2023-01-10T07:23:20;19.63;;;4.37;;
16320;SDS011;8269;50.990;4.494;2023-01-10T07:25:49;20.53;;;4.37;;
16320;SDS011;8269;50.990;4.494;2023-01-10T07:28:18;24.37;;;4.53;;
16320;SDS011;8269;50.990;4.494;2023-01-10T07:30:44;16.52;;;4.07;;
16320;SDS011;8269;50.990;4.494;2023-01-10T07:33:10;26.63;;;5.50;;
16320;SDS011;8269;50.990;4.494;2023-01-10T07:35:36;21.07;;;4.20;;
16320;SDS011;8269;50.990;4.494;2023-01-10T07:38:02;19.03;;;4.43;;
16320;SDS011;8269;50.990;4.494;2023-01-10T07:40:28;19.63;;;4.77;;
16320;SDS011;8269;50.990;4.494;2023-01-10T07:42:58;25.40;;;4.37;;
16320;SDS011;8269;50.990;4.494;2023-01-10T07:45:25;22.17;;;3.97;;
16320;SDS011;8269;50.990;4.494;2023-01-10T07:47:58;21.40;;;4.77;;
16320;SDS011;8269;50.990;4.494;2023-01-10T07:50:25;24.07;;;4.67;;
16320;SDS011;8269;50.990;4.494;2023-01-10T07:52:52;20.00;;;4.73;;
16320;SDS011;8269;50.990;4.494;2023-01-10T07:55:18;17.33;;;4.03;;
16320;SDS011;8269;50.990;4.494;2023-01-10T07:57:44;20.60;;;4.83;;
16320;SDS011;8269;50.990;4.494;2023-01-10T08:00:11;26.70;;;4.97;;
16320;SDS011;8269;50.990;4.494;2023-01-10T08:02:37;22.03;;;4.17;;
16320;SDS011;8269;50.990;4.494;2023-01-10T08:05:03;20.03;;;4.67;;
16320;SDS011;8269;50.990;4.494;2023-01-10T08:07:30;24.03;;;5.03;;
16320;SDS011;8269;50.990;4.494;2023-01-10T08:09:56;18.00;;;4.13;;
16320;SDS011;8269;50.990;4.494;2023-01-10T08:12:23;18.90;;;4.67;;
16320;SDS011;8269;50.990;4.494;2023-01-10T08:14:52;20.90;;;4.17;;
16320;SDS011;8269;50.990;4.494;2023-01-10T08:17:18;18.37;;;4.43;;
16320;SDS011;8269;50.990;4.494;2023-01-10T08:19:44;19.47;;;4.37;;
16320;SDS011;8269;50.990;4.494;2023-01-10T08:22:11;24.53;;;4.63;;
16320;SDS011;8269;50.990;4.494;2023-01-10T08:24:38;21.93;;;4.20;;
16320;SDS011;8269;50.990;4.494;2023-01-10T08:27:04;18.67;;;5.17;;
16320;SDS011;8269;50.990;4.494;2023-01-10T08:29:30;23.77;;;4.57;;
16320;SDS011;8269;50.990;4.494;2023-01-10T08:31:57;22.80;;;4.73;;
16320;SDS011;8269;50.990;4.494;2023-01-10T08:34:23;18.13;;;4.87;;
16320;SDS011;8269;50.990;4.494;2023-01-10T08:36:49;19.63;;;5.23;;
16320;SDS011;8269;50.990;4.494;2023-01-10T08:39:16;18.77;;;3.83;;
16320;SDS011;8269;50.990;4.494;2023-01-10T08:41:44;22.57;;;4.67;;
16320;SDS011;8269;50.990;4.494;2023-01-10T08:44:13;18.60;;;3.87;;
16320;SDS011;8269;50.990;4.494;2023-01-10T08:46:40;16.20;;;4.57;;
16320;SDS011;8269;50.990;4.494;2023-01-10T08:49:06;17.93;;;3.87;;
16320;SDS011;8269;50.990;4.494;2023-01-10T08:51:34;23.93;;;5.07;;
16320;SDS011;8269;50.990;4.494;2023-01-10T08:54:00;21.63;;;4.23;;
16320;SDS011;8269;50.990;4.494;2023-01-10T08:56:26;16.20;;;4.60;;
16320;SDS011;8269;50.990;4.494;2023-01-10T08:58:52;17.23;;;3.93;;
16320;SDS011;8269;50.990;4.494;2023-01-10T09:01:18;17.83;;;4.60;;
16320;SDS011;8269;50.990;4.494;2023-01-10T09:03:44;26.90;;;5.37;;
16320;SDS011;8269;50.990;4.494;2023-01-10T09:06:10;18.77;;;4.50;;
16320;SDS011;8269;50.990;4.494;2023-01-10T09:08:36;19.77;;;4.40;;
16320;SDS011;8269;50.990;4.494;2023-01-10T09:11:02;24.17;;;5.03;;
16320;SDS011;8269;50.990;4.494;2023-01-10T09:13:28;22.13;;;5.20;;
16320;SDS011;8269;50.990;4.494;2023-01-10T09:15:56;18.77;;;4.33;;
16320;SDS011;8269;50.990;4.494;2023-01-10T09:18:22;19.33;;;4.93;;
16320;SDS011;8269;50.990;4.494;2023-01-10T09:20:49;17.70;;;4.40;;
16320;SDS011;8269;50.990;4.494;2023-01-10T09:23:16;21.83;;;4.57;;
16320;SDS011;8269;50.990;4.494;2023-01-10T09:25:47;19.50;;;4.27;;
16320;SDS011;8269;50.990;4.494;2023-01-10T09:28:15;21.97;;;4.87;;
16320;SDS011;8269;50.990;4.494;2023-01-10T09:30:42;20.30;;;3.90;;
16320;SDS011;8269;50.990;4.494;2023-01-10T09:33:08;21.87;;;5.10;;
16320;SDS011;8269;50.990;4.494;2023-01-10T09:35:35;20.10;;;4.47;;
16320;SDS011;8269;50.990;4.494;2023-01-10T09:38:02;17.73;;;4.50;;
16320;SDS011;8269;50.990;4.494;2023-01-10T09:40:32;20.03;;;4.20;;
16320;SDS011;8269;50.990;4.494;2023-01-10T09:43:16;21.90;;;5.23;;
16320;SDS011;8269;50.990;4.494;2023-01-10T09:45:51;25.90;;;4.50;;
16320;SDS011;8269;50.990;4.494;2023-01-10T09:54:13;23.50;;;5.00;;
16320;SDS011;8269;50.990;4.494;2023-01-10T09:56:59;17.50;;;4.40;;
16320;SDS011;8269;50.990;4.494;2023-01-10T09:59:30;18.73;;;4.20;;
16320;SDS011;8269;50.990;4.494;2023-01-10T10:02:46;18.10;;;4.03;;
16320;SDS011;8269;50.990;4.494;2023-01-10T10:05:00;18.20;;;4.27;;
16320;SDS011;8269;50.990;4.494;2023-01-10T10:07:33;25.07;;;4.53;;
16320;SDS011;8269;50.990;4.494;2023-01-10T10:09:59;17.33;;;4.00;;
16320;SDS011;8269;50.990;4.494;2023-01-10T10:12:28;30.37;;;5.57;;
16320;SDS011;8269;50.990;4.494;2023-01-10T10:17:44;27.20;;;4.93;;
16320;SDS011;8269;50.990;4.494;2023-01-10T10:20:33;20.27;;;5.03;;
16320;SDS011;8269;50.990;4.494;2023-01-10T10:29:02;24.50;;;5.57;;
16320;SDS011;8269;50.990;4.494;2023-01-10T10:34:29;20.77;;;4.40;;
16320;SDS011;8269;50.990;4.494;2023-01-10T10:37:43;18.53;;;4.53;;
16320;SDS011;8269;50.990;4.494;2023-01-10T10:39:58;20.67;;;4.30;;
16320;SDS011;8269;50.990;4.494;2023-01-10T10:42:43;20.97;;;4.43;;
16320;SDS011;8269;50.990;4.494;2023-01-10T10:45:19;20.33;;;4.80;;
16320;SDS011;8269;50.990;4.494;2023-01-10T10:47:54;19.63;;;4.63;;
16320;SDS011;8269;50.990;4.494;2023-01-10T10:50:31;21.27;;;4.80;;
16320;SDS011;8269;50.990;4.494;2023-01-10T10:52:59;20.03;;;4.73;;
16320;SDS011;8269;50.990;4.494;2023-01-10T10:55:30;21.33;;;4.70;;
16320;SDS011;8269;50.990;4.494;2023-01-10T10:58:00;17.93;;;4.70;;
16320;SDS011;8269;50.990;4.494;2023-01-10T11:00:28;14.73;;;3.80;;
16320;SDS011;8269;50.990;4.494;2023-01-10T11:03:04;16.03;;;4.23;;
16320;SDS011;8269;50.990;4.494;2023-01-10T11:05:33;19.27;;;4.13;;
16320;SDS011;8269;50.990;4.494;2023-01-10T11:08:04;19.20;;;4.77;;
16320;SDS011;8269;50.990;4.494;2023-01-10T11:10:34;24.03;;;4.80;;
16320;SDS011;8269;50.990;4.494;2023-01-10T11:13:04;21.20;;;5.10;;
16320;SDS011;8269;50.990;4.494;2023-01-10T11:15:40;17.20;;;4.60;;
16320;SDS011;8269;50.990;4.494;2023-01-10T11:18:11;22.30;;;4.87;;
16320;SDS011;8269;50.990;4.494;2023-01-10T11:20:46;17.57;;;3.97;;
16320;SDS011;8269;50.990;4.494;2023-01-10T11:23:24;18.80;;;4.87;;
16320;SDS011;8269;50.990;4.494;2023-01-10T11:25:59;22.00;;;5.17;;
16320;SDS011;8269;50.990;4.494;2023-01-10T11:28:27;23.60;;;4.53;;
16320;SDS011;8269;50.990;4.494;2023-01-10T11:30:54;18.60;;;4.10;;
16320;SDS011;8269;50.990;4.494;2023-01-10T11:33:21;17.70;;;4.47;;
16320;SDS011;8269;50.990;4.494;2023-01-10T11:36:09;17.97;;;3.83;;
16320;SDS011;8269;50.990;4.494;2023-01-10T11:38:39;16.60;;;4.43;;
16320;SDS011;8269;50.990;4.494;2023-01-10T11:41:05;22.67;;;4.40;;
16320;SDS011;8269;50.990;4.494;2023-01-10T11:43:44;20.30;;;4.33;;
16320;SDS011;8269;50.990;4.494;2023-01-10T11:46:17;22.90;;;4.87;;
16320;SDS011;8269;50.990;4.494;2023-01-10T11:51:22;20.30;;;4.60;;
16320;SDS011;8269;50.990;4.494;2023-01-10T11:53:54;20.87;;;4.23;;
16320;SDS011;8269;50.990;4.494;2023-01-10T11:56:33;25.60;;;5.10;;
16320;SDS011;8269;50.990;4.494;2023-01-10T11:59:07;18.87;;;4.63;;
16320;SDS011;8269;50.990;4.494;2023-01-10T12:01:40;18.80;;;4.50;;
16320;SDS011;8269;50.990;4.494;2023-01-10T12:04:13;22.70;;;5.27;;
16320;SDS011;8269;50.990;4.494;2023-01-10T12:06:43;20.40;;;4.60;;
16320;SDS011;8269;50.990;4.494;2023-01-10T12:12:00;15.90;;;4.67;;
16320;SDS011;8269;50.990;4.494;2023-01-10T12:14:30;19.30;;;4.47;;
16320;SDS011;8269;50.990;4.494;2023-01-10T12:16:59;20.40;;;4.50;;
16320;SDS011;8269;50.990;4.494;2023-01-10T12:19:27;16.73;;;4.13;;
16320;SDS011;8269;50.990;4.494;2023-01-10T12:21:53;20.13;;;4.13;;
16320;SDS011;8269;50.990;4.494;2023-01-10T12:24:27;18.03;;;4.60;;
16320;SDS011;8269;50.990;4.494;2023-01-10T12:27:00;18.13;;;4.40;;
16320;SDS011;8269;50.990;4.494;2023-01-10T12:29:41;21.00;;;5.23;;
16320;SDS011;8269;50.990;4.494;2023-01-10T12:32:18;20.77;;;4.67;;
16320;SDS011;8269;50.990;4.494;2023-01-10T12:34:53;19.40;;;4.27;;
16320;SDS011;8269;50.990;4.494;2023-01-10T12:40:03;18.00;;;4.50;;
16320;SDS011;8269;50.990;4.494;2023-01-10T12:42:44;17.97;;;4.30;;
16320;SDS011;8269;50.990;4.494;2023-01-10T12:45:55;18.70;;;4.97;;
16320;SDS011;8269;50.990;4.494;2023-01-10T12:51:03;18.40;;;4.20;;
16320;SDS011;8269;50.990;4.494;2023-01-10T12:53:35;16.57;;;4.40;;
16320;SDS011;8269;50.990;4.494;2023-01-10T12:56:05;24.27;;;5.23;;
16320;SDS011;8269;50.990;4.494;2023-01-10T12:58:41;18.00;;;4.77;;
16320;SDS011;8269;50.990;4.494;2023-01-10T13:01:08;22.07;;;4.87;;
16320;SDS011;8269;50.990;4.494;2023-01-10T13:03:40;18.93;;;4.70;;
16320;SDS011;8269;50.990;4.494;2023-01-10T13:06:11;18.67;;;3.87;;
16320;SDS011;8269;50.990;4.494;2023-01-10T13:08:46;19.07;;;4.47;;
16320;SDS011;8269;50.990;4.494;2023-01-10T13:11:12;20.97;;;4.73;;
16320;SDS011;8269;50.990;4.494;2023-01-10T13:13:42;18.73;;;4.20;;
16320;SDS011;8269;50.990;4.494;2023-01-10T13:21:43;14.60;;;4.07;;
16320;SDS011;8269;50.990;4.494;2023-01-10T13:26:56;15.83;;;3.57;;
16320;SDS011;8269;50.990;4.494;2023-01-10T13:29:39;15.10;;;3.57;;
16320;SDS011;8269;50.990;4.494;2023-01-10T13:32:22;14.20;;;3.30;;
16320;SDS011;8269;50.990;4.494;2023-01-10T13:34:52;15.67;;;4.30;;
16320;SDS011;8269;50.990;4.494;2023-01-10T13:37:26;15.00;;;3.57;;
16320;SDS011;8269;50.990;4.494;2023-01-10T13:39:58;21.53;;;4.43;;
16320;SDS011;8269;50.990;4.494;2023-01-10T13:42:29;21.07;;;5.40;;
16320;SDS011;8269;50.990;4.494;2023-01-10T13:52:52;15.83;;;4.20;;
16320;SDS011;8269;50.990;4.494;2023-01-10T13:55:27;18.40;;;4.10;;
16320;SDS011;8269;50.990;4.494;2023-01-10T14:00:45;18.97;;;4.50;;
16320;SDS011;8269;50.990;4.494;2023-01-10T14:09:27;18.73;;;4.60;;
16320;SDS011;8269;50.990;4.494;2023-01-10T14:11:50;17.47;;;4.50;;
16320;SDS011;8269;50.990;4.494;2023-01-10T14:14:34;19.43;;;5.60;;
16320;SDS011;8269;50.990;4.494;2023-01-10T14:20:36;16.27;;;5.23;;
16320;SDS011;8269;50.990;4.494;2023-01-10T14:25:30;15.03;;;5.40;;
16320;SDS011;8269;50.990;4.494;2023-01-10T14:27:57;20.70;;;6.97;;
16320;SDS011;8269;50.990;4.494;2023-01-10T14:30:34;13.57;;;6.03;;
16320;SDS011;8269;50.990;4.494;2023-01-10T14:33:06;14.00;;;4.97;;
16320;SDS011;8269;50.990;4.494;2023-01-10T14:35:38;17.63;;;4.67;;
16320;SDS011;8269;50.990;4.494;2023-01-10T14:38:07;17.13;;;4.00;;
16320;SDS011;8269;50.990;4.494;2023-01-10T14:40:41;16.87;;;5.63;;
16320;SDS011;8269;50.990;4.494;2023-01-10T14:43:13;17.33;;;5.27;;
16320;SDS011;8269;50.990;4.494;2023-01-10T14:45:54;12.83;;;4.20;;
16320;SDS011;8269;50.990;4.494;2023-01-10T14:48:27;15.23;;;4.30;;
16320;SDS011;8269;50.990;4.494;2023-01-10T14:53:38;10.73;;;2.80;;
16320;SDS011;8269;50.990;4.494;2023-01-10T14:56:19;14.20;;;3.57;;
16320;SDS011;8269;50.990;4.494;2023-01-10T14:58:46;10.03;;;2.93;;
16320;SDS011;8269;50.990;4.494;2023-01-10T15:01:12;10.23;;;3.40;;
16320;SDS011;8269;50.990;4.494;2023-01-10T15:03:45;9.83;;;3.10;;
16320;SDS011;8269;50.990;4.494;2023-01-10T15:06:11;11.27;;;3.83;;
16320;SDS011;8269;50.990;4.494;2023-01-10T15:08:37;12.53;;;3.30;;
16320;SDS011;8269;50.990;4.494;2023-01-10T15:11:03;9.43;;;3.17;;
16320;SDS011;8269;50.990;4.494;2023-01-10T15:13:34;9.57;;;2.63;;
16320;SDS011;8269;50.990;4.494;2023-01-10T15:16:05;8.67;;;2.47;;
16320;SDS011;8269;50.990;4.494;2023-01-10T15:18:42;8.07;;;2.70;;
16320;SDS011;8269;50.990;4.494;2023-01-10T15:21:12;5.93;;;2.50;;
16320;SDS011;8269;50.990;4.494;2023-01-10T15:23:40;4.17;;;1.77;;
16320;SDS011;8269;50.990;4.494;2023-01-10T15:26:14;7.17;;;2.27;;
16320;SDS011;8269;50.990;4.494;2023-01-10T15:31:36;6.70;;;2.10;;
16320;SDS011;8269;50.990;4.494;2023-01-10T15:34:09;5.03;;;2.23;;
16320;SDS011;8269;50.990;4.494;2023-01-10T15:36:45;7.57;;;2.47;;
16320;SDS011;8269;50.990;4.494;2023-01-10T15:39:22;3.97;;;1.70;;
16320;SDS011;8269;50.990;4.494;2023-01-10T15:41:57;5.70;;;1.80;;
16320;SDS011;8269;50.990;4.494;2023-01-10T15:44:34;5.30;;;2.33;;
16320;SDS011;8269;50.990;4.494;2023-01-10T15:49:59;4.83;;;1.83;;
16320;SDS011;8269;50.990;4.494;2023-01-10T15:52:25;4.20;;;2.40;;
16320;SDS011;8269;50.990;4.494;2023-01-10T15:54:51;4.80;;;2.40;;
16320;SDS011;8269;50.990;4.494;2023-01-10T15:59:47;3.87;;;2.13;;
16320;SDS011;8269;50.990;4.494;2023-01-10T16:02:21;5.37;;;2.83;;
16320;SDS011;8269;50.990;4.494;2023-01-10T16:04:48;5.07;;;2.20;;
16320;SDS011;8269;50.990;4.494;2023-01-10T16:07:29;6.83;;;2.60;;
16320;SDS011;8269;50.990;4.494;2023-01-10T16:10:01;5.50;;;2.93;;
16320;SDS011;8269;50.990;4.494;2023-01-10T16:12:34;9.57;;;4.50;;
16320;SDS011;8269;50.990;4.494;2023-01-10T16:15:21;4.50;;;2.33;;
16320;SDS011;8269;50.990;4.494;2023-01-10T16:17:48;3.67;;;2.00;;
16320;SDS011;8269;50.990;4.494;2023-01-10T16:20:15;4.07;;;2.20;;
16320;SDS011;8269;50.990;4.494;2023-01-10T16:22:42;3.60;;;2.30;;
16320;SDS011;8269;50.990;4.494;2023-01-10T16:25:13;2.23;;;1.50;;
16320;SDS011;8269;50.990;4.494;2023-01-10T16:27:40;3.87;;;1.80;;
16320;SDS011;8269;50.990;4.494;2023-01-10T16:30:12;3.60;;;1.80;;
16320;SDS011;8269;50.990;4.494;2023-01-10T16:32:40;3.47;;;1.80;;
16320;SDS011;8269;50.990;4.494;2023-01-10T16:35:06;6.60;;;1.57;;
16320;SDS011;8269;50.990;4.494;2023-01-10T16:37:32;4.30;;;1.80;;
16320;SDS011;8269;50.990;4.494;2023-01-10T16:39:59;3.03;;;1.60;;
16320;SDS011;8269;50.990;4.494;2023-01-10T16:42:25;3.03;;;1.30;;